createdAt,value
2018-04-16T04:05:45.596Z,38.50
2018-04-16T04:08:24.139Z,36.17
2018-04-16T04:21:50.063Z,38.00
2018-04-16T04:24:30.285Z,36.97
2018-04-16T04:27:14.866Z,36.47
2018-04-16T04:29:56.186Z,33.50
2018-04-16T04:32:27.975Z,37.50
2018-04-16T04:35:01.697Z,32.60
2018-04-16T04:37:44.092Z,36.13
2018-04-16T04:42:59.300Z,36.13
2018-04-16T04:45:45.763Z,32.60
2018-04-16T04:48:18.643Z,35.13
2018-04-16T04:56:08.265Z,34.73
2018-04-16T05:04:15.190Z,37.20
2018-04-16T05:06:47.374Z,37.60
2018-04-16T07:19:57.493Z,21.60
2018-04-16T07:56:16.432Z,20.27
2018-04-16T07:58:51.605Z,17.83
2018-04-16T08:01:20.262Z,18.60
2018-04-16T08:06:28.006Z,18.00
2018-04-16T08:11:38.238Z,17.83
2018-04-16T08:14:22.576Z,19.37
2018-04-16T08:19:27.707Z,19.60
2018-04-16T08:21:56.892Z,19.50
2018-04-16T08:24:27.015Z,18.73
2018-04-16T08:26:57.237Z,18.63
2018-04-16T08:29:28.235Z,17.90
2018-04-16T08:34:50.676Z,17.87
2018-04-16T08:48:13.135Z,17.70
2018-04-16T08:50:55.113Z,16.40
2018-04-16T08:58:52.865Z,15.73
2018-04-16T09:07:00.394Z,19.47
2018-04-16T09:10:07.458Z,19.90
2018-04-16T09:17:55.096Z,18.60
2018-04-16T09:20:24.583Z,19.47
2018-04-16T09:22:54.417Z,21.03
2018-04-16T09:25:24.262Z,19.43
2018-04-16T09:27:54.224Z,18.90
2018-04-16T09:30:24.218Z,20.07
2018-04-16T09:32:54.627Z,18.90
2018-04-16T09:35:24.148Z,21.33
2018-04-16T09:37:54.315Z,18.53
2018-04-16T09:40:25.763Z,22.30
2018-04-16T09:42:55.157Z,21.90
2018-04-16T09:45:25.027Z,19.57
2018-04-16T09:47:55.674Z,16.60
2018-04-16T09:50:26.116Z,17.50
2018-04-16T09:52:58.576Z,19.80
2018-04-16T09:55:27.778Z,18.67
2018-04-16T09:57:57.555Z,18.80
2018-04-16T10:00:28.432Z,20.70
2018-04-16T10:03:09.690Z,20.10
2018-04-16T10:05:41.287Z,19.60
2018-04-16T10:08:12.460Z,17.30
2018-04-16T10:10:42.748Z,18.80
2018-04-16T10:13:17.036Z,18.03
2018-04-16T10:15:51.353Z,16.73
2018-04-16T10:18:22.197Z,17.60
2018-04-16T10:20:56.314Z,16.60
2018-04-16T10:23:30.644Z,17.47
2018-04-16T10:26:00.996Z,18.73
2018-04-16T10:28:32.058Z,18.37
2018-04-16T10:31:05.006Z,19.43
2018-04-16T10:33:36.474Z,16.70
2018-04-16T10:36:11.580Z,16.60
2018-04-16T10:44:13.026Z,14.93
2018-04-16T10:46:48.321Z,16.17
2018-04-16T11:06:46.593Z,13.57
2018-04-16T11:12:40.929Z,15.90
2018-04-16T12:17:14.316Z,13.77
2018-04-16T13:08:09.830Z,12.50
2018-04-16T14:35:16.924Z,15.50
2018-04-16T14:53:42.368Z,15.60
2018-04-16T15:06:27.931Z,14.83
